sensor_id;sensor_type;location;lat;lon;timestamp;P1;durP1;ratioP1;P2;durP2;ratioP2
21424;SDS011;10873;51.132;16.848;2022-10-31T00:01:18;9.38;;;5.75;;
21424;SDS011;10873;51.132;16.848;2022-10-31T00:03:48;11.38;;;6.65;;
21424;SDS011;10873;51.132;16.848;2022-10-31T00:06:15;11.80;;;5.88;;
21424;SDS011;10873;51.132;16.848;2022-10-31T00:08:44;13.00;;;5.68;;
21424;SDS011;10873;51.132;16.848;2022-10-31T00:11:10;14.60;;;5.97;;
21424;SDS011;10873;51.132;16.848;2022-10-31T00:13:37;10.40;;;5.43;;
21424;SDS011;10873;51.132;16.848;2022-10-31T00:16:05;10.60;;;5.53;;
21424;SDS011;10873;51.132;16.848;2022-10-31T00:18:38;9.52;;;6.07;;
21424;SDS011;10873;51.132;16.848;2022-10-31T00:21:04;7.40;;;5.63;;
21424;SDS011;10873;51.132;16.848;2022-10-31T00:23:30;10.43;;;5.00;;
21424;SDS011;10873;51.132;16.848;2022-10-31T00:25:59;12.93;;;5.38;;
21424;SDS011;10873;51.132;16.848;2022-10-31T00:28:27;8.48;;;5.03;;
21424;SDS011;10873;51.132;16.848;2022-10-31T00:30:57;6.40;;;5.10;;
21424;SDS011;10873;51.132;16.848;2022-10-31T00:33:25;8.05;;;5.30;;
21424;SDS011;10873;51.132;16.848;2022-10-31T00:35:52;8.90;;;5.07;;
21424;SDS011;10873;51.132;16.848;2022-10-31T00:38:18;8.88;;;5.80;;
21424;SDS011;10873;51.132;16.848;2022-10-31T00:40:44;8.93;;;5.10;;
21424;SDS011;10873;51.132;16.848;2022-10-31T00:43:10;9.80;;;5.80;;
21424;SDS011;10873;51.132;16.848;2022-10-31T00:45:36;7.00;;;5.05;;
21424;SDS011;10873;51.132;16.848;2022-10-31T00:48:03;7.97;;;5.60;;
21424;SDS011;10873;51.132;16.848;2022-10-31T00:50:31;11.10;;;5.80;;
21424;SDS011;10873;51.132;16.848;2022-10-31T00:52:57;8.35;;;5.60;;
21424;SDS011;10873;51.132;16.848;2022-10-31T00:55:23;7.15;;;5.40;;
21424;SDS011;10873;51.132;16.848;2022-10-31T00:57:50;9.65;;;5.68;;
21424;SDS011;10873;51.132;16.848;2022-10-31T01:00:16;10.02;;;5.88;;
21424;SDS011;10873;51.132;16.848;2022-10-31T01:02:42;8.27;;;4.57;;
21424;SDS011;10873;51.132;16.848;2022-10-31T01:05:08;9.50;;;5.57;;
21424;SDS011;10873;51.132;16.848;2022-10-31T01:07:36;8.68;;;5.32;;
21424;SDS011;10873;51.132;16.848;2022-10-31T01:10:03;6.25;;;4.55;;
21424;SDS011;10873;51.132;16.848;2022-10-31T01:12:35;7.07;;;4.72;;
21424;SDS011;10873;51.132;16.848;2022-10-31T01:15:02;7.82;;;5.03;;
21424;SDS011;10873;51.132;16.848;2022-10-31T01:17:28;8.13;;;5.05;;
21424;SDS011;10873;51.132;16.848;2022-10-31T01:19:54;10.77;;;5.28;;
21424;SDS011;10873;51.132;16.848;2022-10-31T01:22:21;9.63;;;5.63;;
21424;SDS011;10873;51.132;16.848;2022-10-31T01:24:48;8.15;;;5.13;;
21424;SDS011;10873;51.132;16.848;2022-10-31T01:27:14;12.13;;;5.05;;
21424;SDS011;10873;51.132;16.848;2022-10-31T01:29:40;10.20;;;5.25;;
21424;SDS011;10873;51.132;16.848;2022-10-31T01:32:07;9.05;;;5.20;;
21424;SDS011;10873;51.132;16.848;2022-10-31T01:34:33;9.27;;;5.18;;
21424;SDS011;10873;51.132;16.848;2022-10-31T01:37:00;7.63;;;4.93;;
21424;SDS011;10873;51.132;16.848;2022-10-31T01:39:26;6.18;;;4.32;;
21424;SDS011;10873;51.132;16.848;2022-10-31T01:41:54;8.27;;;4.97;;
21424;SDS011;10873;51.132;16.848;2022-10-31T01:47:15;7.63;;;5.05;;
21424;SDS011;10873;51.132;16.848;2022-10-31T01:49:45;9.68;;;5.05;;
21424;SDS011;10873;51.132;16.848;2022-10-31T01:52:14;9.43;;;4.63;;
21424;SDS011;10873;51.132;16.848;2022-10-31T01:54:47;7.95;;;5.10;;
21424;SDS011;10873;51.132;16.848;2022-10-31T01:57:18;8.45;;;4.88;;
21424;SDS011;10873;51.132;16.848;2022-10-31T01:59:47;7.90;;;4.75;;
21424;SDS011;10873;51.132;16.848;2022-10-31T02:02:17;10.80;;;5.32;;
21424;SDS011;10873;51.132;16.848;2022-10-31T02:04:44;6.47;;;4.97;;
21424;SDS011;10873;51.132;16.848;2022-10-31T02:07:12;9.35;;;5.40;;
21424;SDS011;10873;51.132;16.848;2022-10-31T02:09:41;9.25;;;5.15;;
21424;SDS011;10873;51.132;16.848;2022-10-31T02:12:09;8.98;;;5.53;;
21424;SDS011;10873;51.132;16.848;2022-10-31T02:14:37;10.73;;;5.80;;
21424;SDS011;10873;51.132;16.848;2022-10-31T02:17:04;7.70;;;5.38;;
21424;SDS011;10873;51.132;16.848;2022-10-31T02:19:32;11.35;;;5.88;;
21424;SDS011;10873;51.132;16.848;2022-10-31T02:22:05;12.65;;;6.13;;
21424;SDS011;10873;51.132;16.848;2022-10-31T02:24:40;10.32;;;6.25;;
21424;SDS011;10873;51.132;16.848;2022-10-31T02:27:25;13.70;;;6.25;;
21424;SDS011;10873;51.132;16.848;2022-10-31T02:30:17;10.63;;;5.75;;
21424;SDS011;10873;51.132;16.848;2022-10-31T02:32:59;10.32;;;5.68;;
21424;SDS011;10873;51.132;16.848;2022-10-31T02:35:48;10.98;;;5.95;;
21424;SDS011;10873;51.132;16.848;2022-10-31T02:38:29;8.98;;;5.20;;
21424;SDS011;10873;51.132;16.848;2022-10-31T02:41:05;7.50;;;4.95;;
21424;SDS011;10873;51.132;16.848;2022-10-31T02:43:43;6.35;;;5.00;;
21424;SDS011;10873;51.132;16.848;2022-10-31T02:46:17;6.78;;;5.07;;
21424;SDS011;10873;51.132;16.848;2022-10-31T02:48:49;7.10;;;4.82;;
21424;SDS011;10873;51.132;16.848;2022-10-31T02:51:18;7.25;;;4.85;;
21424;SDS011;10873;51.132;16.848;2022-10-31T02:53:46;7.00;;;4.60;;
21424;SDS011;10873;51.132;16.848;2022-10-31T02:56:12;6.78;;;4.72;;
21424;SDS011;10873;51.132;16.848;2022-10-31T02:58:42;8.63;;;5.10;;
21424;SDS011;10873;51.132;16.848;2022-10-31T03:01:22;5.80;;;4.57;;
21424;SDS011;10873;51.132;16.848;2022-10-31T03:04:25;10.43;;;5.15;;
21424;SDS011;10873;51.132;16.848;2022-10-31T03:07:03;8.15;;;5.40;;
21424;SDS011;10873;51.132;16.848;2022-10-31T03:09:38;7.78;;;5.32;;
21424;SDS011;10873;51.132;16.848;2022-10-31T03:12:10;11.07;;;5.85;;
21424;SDS011;10873;51.132;16.848;2022-10-31T03:14:41;8.18;;;5.60;;
21424;SDS011;10873;51.132;16.848;2022-10-31T03:17:14;8.10;;;5.35;;
21424;SDS011;10873;51.132;16.848;2022-10-31T03:19:47;9.43;;;5.90;;
21424;SDS011;10873;51.132;16.848;2022-10-31T03:22:19;10.68;;;5.90;;
21424;SDS011;10873;51.132;16.848;2022-10-31T03:24:48;11.50;;;6.18;;
21424;SDS011;10873;51.132;16.848;2022-10-31T03:27:16;11.63;;;6.20;;
21424;SDS011;10873;51.132;16.848;2022-10-31T03:29:46;12.10;;;6.25;;
21424;SDS011;10873;51.132;16.848;2022-10-31T03:32:15;9.68;;;5.93;;
21424;SDS011;10873;51.132;16.848;2022-10-31T03:34:45;8.88;;;5.97;;
21424;SDS011;10873;51.132;16.848;2022-10-31T03:37:15;10.10;;;5.53;;
21424;SDS011;10873;51.132;16.848;2022-10-31T03:39:45;11.45;;;5.93;;
21424;SDS011;10873;51.132;16.848;2022-10-31T03:42:14;10.35;;;5.85;;
21424;SDS011;10873;51.132;16.848;2022-10-31T03:44:42;8.60;;;5.68;;
21424;SDS011;10873;51.132;16.848;2022-10-31T03:47:12;10.63;;;5.40;;
21424;SDS011;10873;51.132;16.848;2022-10-31T03:49:39;11.32;;;6.15;;
21424;SDS011;10873;51.132;16.848;2022-10-31T03:52:07;9.52;;;5.38;;
21424;SDS011;10873;51.132;16.848;2022-10-31T03:54:44;10.75;;;5.32;;
21424;SDS011;10873;51.132;16.848;2022-10-31T03:57:16;8.95;;;5.60;;
21424;SDS011;10873;51.132;16.848;2022-10-31T03:59:50;11.00;;;5.78;;
21424;SDS011;10873;51.132;16.848;2022-10-31T04:02:20;11.13;;;5.10;;
21424;SDS011;10873;51.132;16.848;2022-10-31T04:04:48;8.45;;;4.93;;
21424;SDS011;10873;51.132;16.848;2022-10-31T04:07:17;10.70;;;4.85;;
21424;SDS011;10873;51.132;16.848;2022-10-31T04:09:45;5.68;;;4.40;;
21424;SDS011;10873;51.132;16.848;2022-10-31T04:12:15;6.63;;;4.15;;
21424;SDS011;10873;51.132;16.848;2022-10-31T04:14:42;9.70;;;4.60;;
21424;SDS011;10873;51.132;16.848;2022-10-31T04:17:12;5.97;;;4.30;;
21424;SDS011;10873;51.132;16.848;2022-10-31T04:19:41;6.13;;;3.92;;
21424;SDS011;10873;51.132;16.848;2022-10-31T04:22:08;10.05;;;4.45;;
21424;SDS011;10873;51.132;16.848;2022-10-31T04:24:35;9.10;;;4.35;;
21424;SDS011;10873;51.132;16.848;2022-10-31T04:27:04;8.13;;;4.57;;
21424;SDS011;10873;51.132;16.848;2022-10-31T04:29:30;8.57;;;4.70;;
21424;SDS011;10873;51.132;16.848;2022-10-31T04:31:56;6.43;;;4.35;;
21424;SDS011;10873;51.132;16.848;2022-10-31T04:34:23;10.73;;;4.70;;
21424;SDS011;10873;51.132;16.848;2022-10-31T04:36:49;10.27;;;4.50;;
21424;SDS011;10873;51.132;16.848;2022-10-31T04:39:15;7.47;;;4.50;;
21424;SDS011;10873;51.132;16.848;2022-10-31T04:41:42;7.93;;;4.78;;
21424;SDS011;10873;51.132;16.848;2022-10-31T04:44:08;7.22;;;4.63;;
21424;SDS011;10873;51.132;16.848;2022-10-31T04:46:34;7.85;;;5.10;;
21424;SDS011;10873;51.132;16.848;2022-10-31T04:49:01;6.45;;;4.80;;
21424;SDS011;10873;51.132;16.848;2022-10-31T04:51:27;7.72;;;4.93;;
21424;SDS011;10873;51.132;16.848;2022-10-31T04:53:53;10.68;;;5.45;;
21424;SDS011;10873;51.132;16.848;2022-10-31T04:56:19;7.93;;;5.35;;
21424;SDS011;10873;51.132;16.848;2022-10-31T04:58:47;10.82;;;6.00;;
21424;SDS011;10873;51.132;16.848;2022-10-31T05:01:13;12.15;;;6.05;;
21424;SDS011;10873;51.132;16.848;2022-10-31T05:03:39;10.82;;;6.57;;
21424;SDS011;10873;51.132;16.848;2022-10-31T05:06:05;13.48;;;6.22;;
21424;SDS011;10873;51.132;16.848;2022-10-31T05:08:31;10.27;;;6.28;;
21424;SDS011;10873;51.132;16.848;2022-10-31T05:10:59;10.13;;;6.38;;
21424;SDS011;10873;51.132;16.848;2022-10-31T05:13:26;8.85;;;5.63;;
21424;SDS011;10873;51.132;16.848;2022-10-31T05:15:53;12.73;;;6.35;;
21424;SDS011;10873;51.132;16.848;2022-10-31T05:18:19;16.48;;;7.13;;
21424;SDS011;10873;51.132;16.848;2022-10-31T05:20:46;12.82;;;6.70;;
21424;SDS011;10873;51.132;16.848;2022-10-31T05:23:12;12.10;;;6.88;;
21424;SDS011;10873;51.132;16.848;2022-10-31T05:25:39;17.27;;;6.53;;
21424;SDS011;10873;51.132;16.848;2022-10-31T05:28:06;16.90;;;7.25;;
21424;SDS011;10873;51.132;16.848;2022-10-31T05:30:32;16.35;;;7.30;;
21424;SDS011;10873;51.132;16.848;2022-10-31T05:33:00;15.80;;;7.40;;
21424;SDS011;10873;51.132;16.848;2022-10-31T05:35:27;16.45;;;6.93;;
21424;SDS011;10873;51.132;16.848;2022-10-31T05:37:55;16.83;;;7.45;;
21424;SDS011;10873;51.132;16.848;2022-10-31T05:40:21;13.20;;;7.10;;
21424;SDS011;10873;51.132;16.848;2022-10-31T05:42:49;17.35;;;7.15;;
21424;SDS011;10873;51.132;16.848;2022-10-31T05:45:17;9.80;;;6.53;;
21424;SDS011;10873;51.132;16.848;2022-10-31T05:47:49;12.13;;;7.07;;
21424;SDS011;10873;51.132;16.848;2022-10-31T05:50:17;12.00;;;7.07;;
21424;SDS011;10873;51.132;16.848;2022-10-31T05:52:43;16.50;;;7.03;;
21424;SDS011;10873;51.132;16.848;2022-10-31T05:55:10;16.45;;;8.07;;
21424;SDS011;10873;51.132;16.848;2022-10-31T05:57:36;14.15;;;6.90;;
21424;SDS011;10873;51.132;16.848;2022-10-31T06:00:02;16.83;;;7.68;;
21424;SDS011;10873;51.132;16.848;2022-10-31T06:02:29;15.50;;;7.43;;
21424;SDS011;10873;51.132;16.848;2022-10-31T06:05:00;13.20;;;7.30;;
21424;SDS011;10873;51.132;16.848;2022-10-31T06:07:31;13.93;;;7.15;;
21424;SDS011;10873;51.132;16.848;2022-10-31T06:09:59;16.70;;;7.28;;
21424;SDS011;10873;51.132;16.848;2022-10-31T06:12:25;13.02;;;7.28;;
21424;SDS011;10873;51.132;16.848;2022-10-31T06:14:52;14.13;;;7.38;;
21424;SDS011;10873;51.132;16.848;2022-10-31T06:17:18;17.85;;;7.93;;
21424;SDS011;10873;51.132;16.848;2022-10-31T06:19:44;13.15;;;7.05;;
21424;SDS011;10873;51.132;16.848;2022-10-31T06:22:10;11.82;;;6.82;;
21424;SDS011;10873;51.132;16.848;2022-10-31T06:24:38;13.45;;;7.07;;
21424;SDS011;10873;51.132;16.848;2022-10-31T06:27:04;15.60;;;7.32;;
21424;SDS011;10873;51.132;16.848;2022-10-31T06:29:31;13.95;;;7.45;;
21424;SDS011;10873;51.132;16.848;2022-10-31T06:31:57;13.55;;;7.60;;
21424;SDS011;10873;51.132;16.848;2022-10-31T06:34:23;18.92;;;7.32;;
21424;SDS011;10873;51.132;16.848;2022-10-31T06:36:49;14.80;;;7.30;;
21424;SDS011;10873;51.132;16.848;2022-10-31T06:39:15;14.32;;;7.43;;
21424;SDS011;10873;51.132;16.848;2022-10-31T06:41:42;11.90;;;6.65;;
21424;SDS011;10873;51.132;16.848;2022-10-31T06:44:08;14.07;;;7.55;;
21424;SDS011;10873;51.132;16.848;2022-10-31T06:46:35;16.67;;;7.50;;
21424;SDS011;10873;51.132;16.848;2022-10-31T06:49:01;18.30;;;7.68;;
21424;SDS011;10873;51.132;16.848;2022-10-31T06:51:27;18.40;;;8.02;;
21424;SDS011;10873;51.132;16.848;2022-10-31T06:53:53;16.33;;;7.70;;
21424;SDS011;10873;51.132;16.848;2022-10-31T06:56:19;17.48;;;7.70;;
21424;SDS011;10873;51.132;16.848;2022-10-31T06:58:47;17.38;;;7.60;;
21424;SDS011;10873;51.132;16.848;2022-10-31T07:01:13;13.65;;;7.45;;
21424;SDS011;10873;51.132;16.848;2022-10-31T07:03:39;13.27;;;7.32;;
21424;SDS011;10873;51.132;16.848;2022-10-31T07:06:05;19.13;;;8.05;;
21424;SDS011;10873;51.132;16.848;2022-10-31T07:08:32;18.20;;;7.13;;
21424;SDS011;10873;51.132;16.848;2022-10-31T07:10:58;15.55;;;8.27;;
21424;SDS011;10873;51.132;16.848;2022-10-31T07:13:24;19.40;;;7.07;;
21424;SDS011;10873;51.132;16.848;2022-10-31T07:15:52;15.85;;;7.63;;
21424;SDS011;10873;51.132;16.848;2022-10-31T07:18:20;11.57;;;6.65;;
21424;SDS011;10873;51.132;16.848;2022-10-31T07:20:46;12.63;;;7.35;;
21424;SDS011;10873;51.132;16.848;2022-10-31T07:23:12;14.30;;;7.20;;
21424;SDS011;10873;51.132;16.848;2022-10-31T07:25:38;16.30;;;7.30;;
21424;SDS011;10873;51.132;16.848;2022-10-31T07:28:05;12.23;;;6.90;;
21424;SDS011;10873;51.132;16.848;2022-10-31T07:30:32;11.52;;;7.28;;
21424;SDS011;10873;51.132;16.848;2022-10-31T07:32:59;13.82;;;7.30;;
21424;SDS011;10873;51.132;16.848;2022-10-31T07:35:26;9.43;;;6.28;;
21424;SDS011;10873;51.132;16.848;2022-10-31T07:37:53;12.77;;;7.25;;
21424;SDS011;10873;51.132;16.848;2022-10-31T07:40:20;18.30;;;7.30;;
21424;SDS011;10873;51.132;16.848;2022-10-31T07:42:48;12.60;;;7.03;;
21424;SDS011;10873;51.132;16.848;2022-10-31T07:45:17;13.88;;;6.88;;
21424;SDS011;10873;51.132;16.848;2022-10-31T07:47:45;12.32;;;6.30;;
21424;SDS011;10873;51.132;16.848;2022-10-31T07:50:14;14.88;;;6.97;;
21424;SDS011;10873;51.132;16.848;2022-10-31T07:52:42;14.20;;;6.60;;
21424;SDS011;10873;51.132;16.848;2022-10-31T07:55:08;17.65;;;6.55;;
21424;SDS011;10873;51.132;16.848;2022-10-31T07:57:35;13.63;;;7.13;;
21424;SDS011;10873;51.132;16.848;2022-10-31T08:00:02;15.45;;;6.95;;
21424;SDS011;10873;51.132;16.848;2022-10-31T08:02:29;13.85;;;7.22;;
21424;SDS011;10873;51.132;16.848;2022-10-31T08:04:55;12.85;;;6.55;;
21424;SDS011;10873;51.132;16.848;2022-10-31T08:07:22;13.65;;;6.63;;
21424;SDS011;10873;51.132;16.848;2022-10-31T08:09:48;13.70;;;6.30;;
21424;SDS011;10873;51.132;16.848;2022-10-31T08:12:15;12.88;;;6.95;;
21424;SDS011;10873;51.132;16.848;2022-10-31T08:14:41;16.25;;;6.60;;
21424;SDS011;10873;51.132;16.848;2022-10-31T08:17:07;12.82;;;6.43;;
21424;SDS011;10873;51.132;16.848;2022-10-31T08:19:33;16.92;;;6.28;;
21424;SDS011;10873;51.132;16.848;2022-10-31T08:22:00;12.27;;;6.13;;
21424;SDS011;10873;51.132;16.848;2022-10-31T08:24:28;11.35;;;5.97;;
21424;SDS011;10873;51.132;16.848;2022-10-31T08:26:54;14.68;;;5.88;;
21424;SDS011;10873;51.132;16.848;2022-10-31T08:29:20;10.32;;;5.30;;
21424;SDS011;10873;51.132;16.848;2022-10-31T08:31:47;9.02;;;5.57;;
21424;SDS011;10873;51.132;16.848;2022-10-31T08:34:13;13.35;;;6.65;;
21424;SDS011;10873;51.132;16.848;2022-10-31T08:36:39;12.82;;;5.82;;
21424;SDS011;10873;51.132;16.848;2022-10-31T08:39:05;12.30;;;6.35;;
21424;SDS011;10873;51.132;16.848;2022-10-31T08:41:33;9.45;;;5.38;;
21424;SDS011;10873;51.132;16.848;2022-10-31T08:44:00;8.48;;;4.97;;
21424;SDS011;10873;51.132;16.848;2022-10-31T08:46:26;13.35;;;6.05;;
21424;SDS011;10873;51.132;16.848;2022-10-31T08:48:52;9.20;;;5.57;;
21424;SDS011;10873;51.132;16.848;2022-10-31T08:51:19;13.30;;;5.20;;
21424;SDS011;10873;51.132;16.848;2022-10-31T08:53:45;8.27;;;4.25;;
21424;SDS011;10873;51.132;16.848;2022-10-31T08:56:11;11.48;;;4.97;;
21424;SDS011;10873;51.132;16.848;2022-10-31T08:58:38;11.30;;;5.40;;
21424;SDS011;10873;51.132;16.848;2022-10-31T09:01:05;14.02;;;5.35;;
21424;SDS011;10873;51.132;16.848;2022-10-31T09:03:31;8.98;;;4.95;;
21424;SDS011;10873;51.132;16.848;2022-10-31T09:05:58;9.70;;;4.93;;
21424;SDS011;10873;51.132;16.848;2022-10-31T09:08:25;8.32;;;4.72;;
21424;SDS011;10873;51.132;16.848;2022-10-31T09:10:51;10.85;;;4.80;;
21424;SDS011;10873;51.132;16.848;2022-10-31T09:13:21;8.88;;;4.82;;
21424;SDS011;10873;51.132;16.848;2022-10-31T09:15:48;8.48;;;4.63;;
21424;SDS011;10873;51.132;16.848;2022-10-31T09:18:15;13.60;;;4.97;;
21424;SDS011;10873;51.132;16.848;2022-10-31T09:20:43;7.40;;;4.20;;
21424;SDS011;10873;51.132;16.848;2022-10-31T09:23:10;8.48;;;4.72;;
21424;SDS011;10873;51.132;16.848;2022-10-31T09:25:38;8.07;;;4.40;;
21424;SDS011;10873;51.132;16.848;2022-10-31T09:28:05;10.90;;;4.65;;
21424;SDS011;10873;51.132;16.848;2022-10-31T09:30:33;7.63;;;4.28;;
21424;SDS011;10873;51.132;16.848;2022-10-31T09:33:02;11.32;;;4.47;;
21424;SDS011;10873;51.132;16.848;2022-10-31T09:35:29;15.85;;;4.82;;
21424;SDS011;10873;51.132;16.848;2022-10-31T09:37:56;8.95;;;4.00;;
21424;SDS011;10873;51.132;16.848;2022-10-31T09:40:24;11.52;;;4.68;;
21424;SDS011;10873;51.132;16.848;2022-10-31T09:42:58;10.35;;;4.75;;
21424;SDS011;10873;51.132;16.848;2022-10-31T09:45:31;8.15;;;4.35;;
21424;SDS011;10873;51.132;16.848;2022-10-31T09:48:08;8.60;;;4.60;;
21424;SDS011;10873;51.132;16.848;2022-10-31T09:50:48;9.85;;;4.57;;
21424;SDS011;10873;51.132;16.848;2022-10-31T09:53:21;9.88;;;4.72;;
21424;SDS011;10873;51.132;16.848;2022-10-31T09:55:51;9.85;;;4.45;;
21424;SDS011;10873;51.132;16.848;2022-10-31T09:58:18;9.10;;;4.13;;
21424;SDS011;10873;51.132;16.848;2022-10-31T10:00:48;13.32;;;5.05;;
21424;SDS011;10873;51.132;16.848;2022-10-31T10:03:18;6.90;;;4.22;;
21424;SDS011;10873;51.132;16.848;2022-10-31T10:05:54;10.85;;;4.32;;
21424;SDS011;10873;51.132;16.848;2022-10-31T10:08:29;8.48;;;4.25;;
21424;SDS011;10873;51.132;16.848;2022-10-31T10:11:02;11.60;;;4.63;;
21424;SDS011;10873;51.132;16.848;2022-10-31T10:13:45;9.13;;;4.35;;
21424;SDS011;10873;51.132;16.848;2022-10-31T10:16:44;10.80;;;4.72;;
21424;SDS011;10873;51.132;16.848;2022-10-31T10:19:24;7.80;;;4.20;;
21424;SDS011;10873;51.132;16.848;2022-10-31T10:22:00;6.97;;;4.55;;
21424;SDS011;10873;51.132;16.848;2022-10-31T10:24:46;5.15;;;3.58;;
21424;SDS011;10873;51.132;16.848;2022-10-31T10:27:22;7.85;;;4.38;;
21424;SDS011;10873;51.132;16.848;2022-10-31T10:29:57;10.07;;;4.20;;
21424;SDS011;10873;51.132;16.848;2022-10-31T10:32:28;8.98;;;4.22;;
21424;SDS011;10873;51.132;16.848;2022-10-31T10:34:57;9.05;;;4.53;;
21424;SDS011;10873;51.132;16.848;2022-10-31T10:37:34;8.48;;;4.45;;
21424;SDS011;10873;51.132;16.848;2022-10-31T10:40:06;8.05;;;4.00;;
21424;SDS011;10873;51.132;16.848;2022-10-31T10:42:39;8.88;;;4.18;;
21424;SDS011;10873;51.132;16.848;2022-10-31T10:45:25;10.15;;;4.45;;
21424;SDS011;10873;51.132;16.848;2022-10-31T10:48:12;9.10;;;4.40;;
21424;SDS011;10873;51.132;16.848;2022-10-31T10:50:44;8.60;;;4.15;;
21424;SDS011;10873;51.132;16.848;2022-10-31T10:53:20;6.93;;;4.22;;
21424;SDS011;10873;51.132;16.848;2022-10-31T10:56:03;7.45;;;3.92;;
21424;SDS011;10873;51.132;16.848;2022-10-31T10:58:37;9.15;;;4.07;;
21424;SDS011;10873;51.132;16.848;2022-10-31T11:01:08;8.32;;;3.67;;
21424;SDS011;10873;51.132;16.848;2022-10-31T11:03:36;8.88;;;4.00;;
21424;SDS011;10873;51.132;16.848;2022-10-31T11:06:04;11.70;;;4.32;;
21424;SDS011;10873;51.132;16.848;2022-10-31T11:08:41;6.07;;;3.97;;
21424;SDS011;10873;51.132;16.848;2022-10-31T11:11:19;9.27;;;4.53;;
21424;SDS011;10873;51.132;16.848;2022-10-31T11:13:57;11.02;;;4.10;;
21424;SDS011;10873;51.132;16.848;2022-10-31T11:16:29;6.55;;;3.95;;
21424;SDS011;10873;51.132;16.848;2022-10-31T11:19:05;9.20;;;4.18;;
21424;SDS011;10873;51.132;16.848;2022-10-31T11:21:35;9.90;;;4.50;;
21424;SDS011;10873;51.132;16.848;2022-10-31T11:24:02;8.65;;;4.22;;
21424;SDS011;10873;51.132;16.848;2022-10-31T11:26:29;7.50;;;4.18;;
21424;SDS011;10873;51.132;16.848;2022-10-31T11:28:56;6.28;;;3.88;;
21424;SDS011;10873;51.132;16.848;2022-10-31T11:31:22;6.60;;;4.00;;
21424;SDS011;10873;51.132;16.848;2022-10-31T11:33:52;8.05;;;4.30;;
21424;SDS011;10873;51.132;16.848;2022-10-31T11:36:22;7.82;;;3.97;;
21424;SDS011;10873;51.132;16.848;2022-10-31T11:38:51;10.02;;;4.18;;
21424;SDS011;10873;51.132;16.848;2022-10-31T11:41:19;8.18;;;4.07;;
21424;SDS011;10873;51.132;16.848;2022-10-31T11:43:51;8.52;;;3.83;;
21424;SDS011;10873;51.132;16.848;2022-10-31T11:46:22;7.35;;;4.30;;
21424;SDS011;10873;51.132;16.848;2022-10-31T11:48:54;5.80;;;3.88;;
21424;SDS011;10873;51.132;16.848;2022-10-31T11:51:22;7.90;;;4.10;;
21424;SDS011;10873;51.132;16.848;2022-10-31T11:53:54;9.32;;;4.13;;
21424;SDS011;10873;51.132;16.848;2022-10-31T11:56:22;8.82;;;4.20;;
21424;SDS011;10873;51.132;16.848;2022-10-31T11:58:55;5.80;;;3.97;;
21424;SDS011;10873;51.132;16.848;2022-10-31T12:01:23;8.82;;;4.40;;
21424;SDS011;10873;51.132;16.848;2022-10-31T12:03:54;7.13;;;3.58;;
21424;SDS011;10873;51.132;16.848;2022-10-31T12:06:27;10.23;;;4.10;;
21424;SDS011;10873;51.132;16.848;2022-10-31T12:08:59;7.70;;;3.72;;
21424;SDS011;10873;51.132;16.848;2022-10-31T12:11:33;8.27;;;3.85;;
21424;SDS011;10873;51.132;16.848;2022-10-31T12:14:12;9.93;;;4.25;;
21424;SDS011;10873;51.132;16.848;2022-10-31T12:16:48;8.07;;;3.65;;
21424;SDS011;10873;51.132;16.848;2022-10-31T12:19:24;6.40;;;3.63;;
21424;SDS011;10873;51.132;16.848;2022-10-31T12:22:01;6.97;;;3.63;;
21424;SDS011;10873;51.132;16.848;2022-10-31T12:24:38;6.35;;;3.55;;
21424;SDS011;10873;51.132;16.848;2022-10-31T12:27:22;7.95;;;4.47;;
21424;SDS011;10873;51.132;16.848;2022-10-31T12:30:10;7.22;;;3.88;;
21424;SDS011;10873;51.132;16.848;2022-10-31T12:32:42;9.27;;;4.38;;
21424;SDS011;10873;51.132;16.848;2022-10-31T12:35:25;7.75;;;4.20;;
21424;SDS011;10873;51.132;16.848;2022-10-31T12:38:12;7.75;;;3.75;;
21424;SDS011;10873;51.132;16.848;2022-10-31T12:40:53;6.60;;;3.78;;
21424;SDS011;10873;51.132;16.848;2022-10-31T12:43:33;11.27;;;4.35;;
21424;SDS011;10873;51.132;16.848;2022-10-31T12:46:04;9.20;;;3.85;;
21424;SDS011;10873;51.132;16.848;2022-10-31T12:51:31;7.25;;;3.55;;
21424;SDS011;10873;51.132;16.848;2022-10-31T12:54:10;7.38;;;4.30;;
21424;SDS011;10873;51.132;16.848;2022-10-31T12:56:48;7.88;;;3.90;;
21424;SDS011;10873;51.132;16.848;2022-10-31T12:59:24;6.57;;;3.92;;
21424;SDS011;10873;51.132;16.848;2022-10-31T13:01:56;8.40;;;3.97;;
21424;SDS011;10873;51.132;16.848;2022-10-31T13:04:30;6.57;;;3.85;;
21424;SDS011;10873;51.132;16.848;2022-10-31T13:07:05;7.22;;;3.53;;
21424;SDS011;10873;51.132;16.848;2022-10-31T13:09:37;8.60;;;4.03;;
21424;SDS011;10873;51.132;16.848;2022-10-31T13:12:08;7.30;;;3.70;;
21424;SDS011;10873;51.132;16.848;2022-10-31T13:14:38;7.78;;;3.92;;
21424;SDS011;10873;51.132;16.848;2022-10-31T13:17:08;6.25;;;3.92;;
21424;SDS011;10873;51.132;16.848;2022-10-31T13:19:43;9.68;;;3.90;;
21424;SDS011;10873;51.132;16.848;2022-10-31T13:22:12;7.25;;;4.25;;
21424;SDS011;10873;51.132;16.848;2022-10-31T13:24:44;8.88;;;4.00;;
21424;SDS011;10873;51.132;16.848;2022-10-31T13:27:29;6.72;;;3.83;;
21424;SDS011;10873;51.132;16.848;2022-10-31T13:30:12;5.53;;;4.28;;
21424;SDS011;10873;51.132;16.848;2022-10-31T13:32:41;6.72;;;4.03;;
21424;SDS011;10873;51.132;16.848;2022-10-31T13:35:12;6.68;;;4.45;;
21424;SDS011;10873;51.132;16.848;2022-10-31T13:37:44;8.20;;;4.20;;
21424;SDS011;10873;51.132;16.848;2022-10-31T13:40:17;8.20;;;4.03;;
21424;SDS011;10873;51.132;16.848;2022-10-31T13:42:56;6.45;;;4.07;;
21424;SDS011;10873;51.132;16.848;2022-10-31T13:45:26;11.55;;;4.13;;
21424;SDS011;10873;51.132;16.848;2022-10-31T13:47:56;7.75;;;3.70;;
21424;SDS011;10873;51.132;16.848;2022-10-31T13:50:25;9.00;;;4.45;;
21424;SDS011;10873;51.132;16.848;2022-10-31T13:53:03;11.43;;;4.68;;
21424;SDS011;10873;51.132;16.848;2022-10-31T13:55:40;6.90;;;4.57;;
21424;SDS011;10873;51.132;16.848;2022-10-31T13:58:21;10.00;;;4.10;;
21424;SDS011;10873;51.132;16.848;2022-10-31T14:00:59;7.50;;;4.03;;
21424;SDS011;10873;51.132;16.848;2022-10-31T14:03:37;7.55;;;4.20;;
21424;SDS011;10873;51.132;16.848;2022-10-31T14:06:05;7.03;;;4.18;;
21424;SDS011;10873;51.132;16.848;2022-10-31T14:08:34;13.57;;;4.50;;
21424;SDS011;10873;51.132;16.848;2022-10-31T14:11:03;8.95;;;4.07;;
21424;SDS011;10873;51.132;16.848;2022-10-31T14:13:31;7.38;;;3.97;;
21424;SDS011;10873;51.132;16.848;2022-10-31T14:16:03;7.45;;;4.32;;
21424;SDS011;10873;51.132;16.848;2022-10-31T14:18:31;6.60;;;3.95;;
21424;SDS011;10873;51.132;16.848;2022-10-31T14:21:01;5.85;;;3.85;;
21424;SDS011;10873;51.132;16.848;2022-10-31T14:23:39;5.63;;;3.97;;
21424;SDS011;10873;51.132;16.848;2022-10-31T14:26:17;9.77;;;4.30;;
21424;SDS011;10873;51.132;16.848;2022-10-31T14:29:00;8.85;;;4.28;;
21424;SDS011;10873;51.132;16.848;2022-10-31T14:31:32;8.15;;;4.15;;
21424;SDS011;10873;51.132;16.848;2022-10-31T14:34:06;8.15;;;4.35;;
21424;SDS011;10873;51.132;16.848;2022-10-31T14:36:49;10.43;;;4.47;;
21424;SDS011;10873;51.132;16.848;2022-10-31T14:39:25;11.30;;;4.28;;
21424;SDS011;10873;51.132;16.848;2022-10-31T14:42:00;9.00;;;4.60;;
21424;SDS011;10873;51.132;16.848;2022-10-31T14:44:51;7.55;;;4.18;;
21424;SDS011;10873;51.132;16.848;2022-10-31T14:47:33;9.40;;;4.55;;
21424;SDS011;10873;51.132;16.848;2022-10-31T14:50:14;13.98;;;4.70;;
21424;SDS011;10873;51.132;16.848;2022-10-31T14:52:47;7.97;;;4.05;;